createdAt,value
2019-01-25T00:00:54.703Z,24.60
2019-01-25T00:03:21.380Z,19.87
2019-01-25T00:05:48.212Z,19.87
2019-01-25T00:08:15.021Z,20.17
2019-01-25T00:10:41.921Z,22.03
2019-01-25T00:13:08.676Z,18.63
2019-01-25T00:15:35.562Z,16.07
2019-01-25T00:18:03.146Z,22.47
2019-01-25T00:20:30.475Z,17.67
2019-01-25T00:22:57.296Z,17.53
2019-01-25T00:25:23.966Z,22.47
2019-01-25T00:27:50.757Z,18.57
2019-01-25T00:30:18.546Z,21.67
2019-01-25T00:32:45.449Z,22.00
2019-01-25T00:35:12.429Z,20.30
2019-01-25T00:37:39.289Z,18.33
2019-01-25T00:40:08.654Z,22.40
2019-01-25T00:42:35.346Z,24.37
2019-01-25T00:45:02.440Z,23.80
2019-01-25T00:47:29.268Z,24.90
2019-01-25T00:49:55.896Z,24.93
2019-01-25T00:52:23.408Z,24.47
2019-01-25T00:54:50.202Z,22.03
2019-01-25T00:57:16.957Z,21.83
2019-01-25T00:59:44.075Z,19.90
2019-01-25T01:02:10.892Z,22.57
2019-01-25T01:04:37.896Z,22.07
2019-01-25T01:07:04.808Z,22.47
2019-01-25T01:09:31.425Z,20.20
2019-01-25T01:11:58.091Z,23.50
2019-01-25T01:14:24.808Z,23.93
2019-01-25T01:16:51.533Z,20.27
2019-01-25T01:19:18.230Z,23.03
2019-01-25T01:21:44.969Z,23.10
2019-01-25T01:24:11.615Z,23.30
2019-01-25T01:26:38.325Z,22.03
2019-01-25T01:29:07.670Z,21.10
2019-01-25T01:31:34.477Z,18.33
2019-01-25T01:34:01.101Z,21.27
2019-01-25T01:36:27.728Z,23.03
2019-01-25T01:38:54.365Z,21.10
2019-01-25T01:41:21.012Z,20.00
2019-01-25T01:43:47.712Z,18.73
2019-01-25T01:46:14.345Z,19.87
2019-01-25T01:48:41.082Z,19.60
2019-01-25T01:51:08.134Z,18.13
2019-01-25T01:53:34.899Z,16.97
2019-01-25T01:56:01.757Z,18.50
2019-01-25T01:58:28.396Z,18.00
2019-01-25T02:00:55.121Z,19.73
2019-01-25T02:03:21.778Z,19.50
2019-01-25T02:05:48.490Z,22.10
2019-01-25T02:08:15.142Z,19.60
2019-01-25T02:10:41.913Z,19.07
2019-01-25T02:13:08.581Z,22.20
2019-01-25T02:15:35.261Z,21.27
2019-01-25T02:18:01.958Z,22.60
2019-01-25T02:20:29.721Z,20.20
2019-01-25T02:22:56.414Z,21.27
2019-01-25T02:25:24.268Z,20.20
2019-01-25T02:27:51.328Z,21.90
2019-01-25T02:30:19.675Z,18.03
2019-01-25T02:32:46.494Z,18.83
2019-01-25T02:35:13.370Z,17.97
2019-01-25T02:37:40.122Z,20.03
2019-01-25T02:40:07.889Z,21.40
2019-01-25T02:42:34.529Z,20.40
2019-01-25T02:45:01.218Z,18.10
2019-01-25T02:47:28.365Z,18.43
2019-01-25T02:49:55.053Z,19.60
2019-01-25T02:52:21.725Z,19.77
2019-01-25T02:54:48.411Z,19.20
2019-01-25T02:57:15.359Z,20.80
2019-01-25T02:59:42.297Z,19.73
2019-01-25T03:02:09.157Z,17.03
2019-01-25T03:04:36.039Z,17.07
2019-01-25T03:07:03.712Z,18.60
2019-01-25T03:09:30.630Z,19.30
2019-01-25T03:11:57.496Z,17.77
2019-01-25T03:14:24.303Z,18.47
2019-01-25T03:16:51.186Z,17.20
2019-01-25T03:19:17.964Z,18.53
2019-01-25T03:21:44.954Z,18.17
2019-01-25T03:24:11.788Z,19.40
2019-01-25T03:26:38.472Z,17.47
2019-01-25T03:29:05.160Z,18.37
2019-01-25T03:31:31.817Z,21.60
2019-01-25T03:33:58.546Z,18.77
2019-01-25T03:36:25.696Z,17.73
2019-01-25T03:38:52.393Z,19.63
2019-01-25T03:41:19.276Z,19.00
2019-01-25T03:43:45.898Z,21.37
2019-01-25T03:46:12.725Z,20.33
2019-01-25T03:48:39.574Z,14.20
2019-01-25T03:51:06.263Z,18.40
2019-01-25T03:53:32.856Z,17.53
2019-01-25T03:55:59.576Z,18.90
2019-01-25T03:58:26.189Z,19.53
2019-01-25T04:00:52.816Z,18.07
2019-01-25T04:03:19.813Z,20.10
2019-01-25T04:05:46.416Z,19.93
2019-01-25T04:08:13.025Z,19.07
2019-01-25T04:10:39.684Z,18.80
2019-01-25T04:13:06.305Z,20.53
2019-01-25T04:15:33.227Z,18.23
2019-01-25T04:17:59.928Z,19.37
2019-01-25T04:20:26.893Z,17.83
2019-01-25T04:22:53.640Z,19.97
2019-01-25T04:25:20.777Z,20.57
2019-01-25T04:27:47.802Z,21.10
2019-01-25T04:30:19.759Z,21.47
2019-01-25T04:32:46.548Z,22.60
2019-01-25T04:35:13.615Z,21.90
2019-01-25T04:37:40.283Z,22.37
2019-01-25T04:40:09.106Z,20.80
2019-01-25T04:42:36.841Z,19.30
2019-01-25T04:45:04.693Z,21.60
2019-01-25T04:47:31.580Z,21.90
2019-01-25T04:49:58.550Z,22.30
2019-01-25T04:52:25.420Z,21.20
2019-01-25T04:54:52.549Z,19.00
2019-01-25T04:57:19.469Z,19.20
2019-01-25T04:59:46.421Z,19.80
2019-01-25T05:02:13.379Z,20.33
2019-01-25T05:04:40.292Z,21.20
2019-01-25T05:07:07.223Z,21.33
2019-01-25T05:09:37.778Z,21.73
2019-01-25T05:12:04.711Z,22.10
2019-01-25T05:14:32.832Z,21.03
2019-01-25T05:16:59.679Z,22.47
2019-01-25T05:19:26.491Z,21.80
2019-01-25T05:21:53.327Z,23.50
2019-01-25T05:24:20.256Z,25.37
2019-01-25T05:26:47.269Z,24.10
2019-01-25T05:29:14.085Z,24.67
2019-01-25T05:31:42.025Z,25.23
2019-01-25T05:34:08.939Z,22.67
2019-01-25T05:36:35.768Z,24.37
2019-01-25T05:39:05.185Z,24.67
2019-01-25T05:41:32.169Z,24.63
2019-01-25T05:43:59.031Z,24.90
2019-01-25T05:46:25.972Z,23.60
2019-01-25T05:48:52.826Z,26.70
2019-01-25T05:51:19.658Z,26.70
2019-01-25T05:53:47.338Z,25.80
2019-01-25T05:56:14.180Z,24.97
2019-01-25T05:58:41.036Z,25.37
2019-01-25T06:01:07.933Z,27.00
2019-01-25T06:03:34.852Z,28.50
2019-01-25T06:06:02.775Z,26.77
2019-01-25T06:08:43.542Z,28.13
2019-01-25T06:11:07.861Z,28.43
2019-01-25T06:13:34.913Z,29.30
2019-01-25T06:16:01.865Z,29.10
2019-01-25T06:18:28.821Z,28.70
2019-01-25T06:20:55.781Z,26.60
2019-01-25T06:23:22.772Z,26.87
2019-01-25T06:25:53.387Z,29.50
2019-01-25T06:28:20.232Z,27.77
2019-01-25T06:30:47.116Z,26.90
2019-01-25T06:33:14.020Z,26.40
2019-01-25T06:35:40.852Z,26.50
2019-01-25T06:38:07.761Z,25.90
2019-01-25T06:40:34.637Z,26.60
2019-01-25T06:43:01.691Z,29.13
2019-01-25T06:45:28.560Z,26.47
2019-01-25T06:47:55.395Z,25.97
2019-01-25T06:50:22.271Z,27.13
2019-01-25T06:52:49.146Z,29.67
2019-01-25T06:55:16.024Z,28.10
2019-01-25T06:57:52.651Z,29.23
2019-01-25T07:00:22.317Z,28.60
2019-01-25T07:02:49.143Z,28.17
2019-01-25T07:05:16.128Z,28.93
2019-01-25T07:07:43.904Z,27.90
2019-01-25T07:10:12.102Z,28.53
2019-01-25T07:12:39.044Z,28.20
2019-01-25T07:15:06.904Z,30.47
2019-01-25T07:17:33.781Z,26.70
2019-01-25T07:20:00.694Z,27.37
2019-01-25T07:22:27.591Z,27.40
2019-01-25T07:24:57.280Z,26.33
2019-01-25T07:27:23.290Z,21.80
2019-01-25T07:29:50.158Z,24.50
2019-01-25T07:32:17.071Z,27.27
2019-01-25T07:34:44.184Z,23.27
2019-01-25T07:37:11.129Z,26.00
2019-01-25T07:39:38.129Z,22.50
2019-01-25T07:42:05.292Z,20.63
2019-01-25T07:44:32.227Z,20.77
2019-01-25T07:46:59.975Z,21.07
2019-01-25T07:49:26.996Z,21.37
2019-01-25T07:51:53.926Z,20.73
2019-01-25T07:54:20.793Z,20.00
2019-01-25T07:56:47.880Z,18.63
2019-01-25T07:59:14.832Z,19.17
2019-01-25T08:01:41.705Z,19.73
2019-01-25T08:04:08.683Z,21.67
2019-01-25T08:06:35.530Z,19.60
2019-01-25T08:09:04.827Z,19.73
2019-01-25T08:11:31.798Z,20.67
2019-01-25T08:13:58.656Z,18.87
2019-01-25T08:16:25.613Z,19.93
2019-01-25T08:18:52.585Z,20.13
2019-01-25T08:21:19.430Z,20.23
2019-01-25T08:23:46.392Z,20.00
2019-01-25T08:26:13.306Z,21.57
2019-01-25T08:28:40.161Z,20.87
2019-01-25T08:31:07.113Z,21.30
2019-01-25T08:33:34.048Z,20.50
2019-01-25T08:36:01.022Z,20.10
2019-01-25T08:38:27.890Z,19.73
2019-01-25T08:40:55.156Z,19.40
2019-01-25T08:43:22.156Z,19.47
2019-01-25T08:45:49.523Z,20.10
2019-01-25T08:48:16.752Z,20.83
2019-01-25T08:50:43.886Z,19.47
2019-01-25T08:53:10.971Z,22.07
2019-01-25T08:55:38.090Z,20.80
2019-01-25T08:58:04.945Z,21.30
2019-01-25T09:00:31.800Z,21.60
2019-01-25T09:02:58.660Z,22.87
2019-01-25T09:05:25.545Z,22.87
2019-01-25T09:07:52.378Z,21.77
2019-01-25T09:10:19.372Z,23.03
2019-01-25T09:12:46.191Z,25.60
2019-01-25T09:15:17.342Z,24.03
2019-01-25T09:17:44.392Z,25.10
2019-01-25T09:20:14.598Z,25.20
2019-01-25T09:22:41.347Z,24.13
2019-01-25T09:25:08.368Z,24.87
2019-01-25T09:27:35.245Z,26.30
2019-01-25T09:30:02.326Z,25.17
2019-01-25T09:32:29.184Z,27.57
2019-01-25T09:34:56.150Z,26.13
2019-01-25T09:37:22.995Z,25.17
2019-01-25T09:39:49.905Z,25.13
2019-01-25T09:42:16.769Z,25.10
2019-01-25T09:44:43.628Z,25.50
2019-01-25T09:47:10.596Z,25.50
2019-01-25T09:49:37.414Z,28.00
2019-01-25T09:52:04.288Z,26.60
2019-01-25T09:54:31.219Z,27.53
2019-01-25T09:56:58.180Z,24.73
2019-01-25T09:59:25.019Z,24.63
2019-01-25T10:01:51.875Z,24.73
2019-01-25T10:04:18.749Z,24.33
2019-01-25T10:06:48.516Z,25.33
2019-01-25T10:09:15.451Z,25.47
2019-01-25T10:11:42.432Z,24.20
2019-01-25T10:14:09.263Z,23.97
2019-01-25T10:16:36.157Z,24.27
2019-01-25T10:19:06.851Z,25.10
2019-01-25T10:21:33.756Z,22.83
2019-01-25T10:24:00.743Z,21.73
2019-01-25T10:26:27.568Z,21.20
2019-01-25T10:28:54.427Z,21.17
2019-01-25T10:31:21.350Z,20.20
2019-01-25T10:33:48.203Z,23.37
2019-01-25T10:36:15.032Z,22.37
2019-01-25T10:38:41.875Z,22.20
2019-01-25T10:41:08.740Z,22.20
2019-01-25T10:43:35.605Z,22.60
2019-01-25T10:46:02.716Z,21.70
2019-01-25T10:48:29.533Z,21.10
2019-01-25T10:50:56.396Z,21.87
2019-01-25T10:53:23.267Z,20.63
2019-01-25T10:55:50.099Z,20.37
2019-01-25T10:58:17.020Z,20.47
2019-01-25T11:00:43.915Z,20.00
2019-01-25T11:03:10.854Z,18.60
2019-01-25T11:05:37.683Z,19.83
2019-01-25T11:08:04.555Z,19.77
2019-01-25T11:10:31.392Z,20.10
2019-01-25T11:13:01.039Z,21.47
2019-01-25T11:15:27.177Z,19.83
2019-01-25T11:17:53.995Z,19.80
2019-01-25T11:20:21.315Z,19.30
2019-01-25T11:22:48.171Z,19.13
2019-01-25T11:25:16.604Z,19.50
2019-01-25T11:27:43.436Z,19.93
2019-01-25T11:30:10.776Z,20.93
2019-01-25T11:32:37.664Z,19.20
2019-01-25T11:35:04.532Z,18.57
2019-01-25T11:37:31.416Z,18.73
2019-01-25T11:39:58.358Z,18.77
2019-01-25T11:42:25.256Z,17.70
2019-01-25T11:44:52.141Z,19.40
2019-01-25T11:47:19.024Z,19.00
2019-01-25T11:49:45.858Z,20.20
2019-01-25T11:52:12.715Z,18.53
2019-01-25T11:54:40.556Z,21.33
2019-01-25T11:57:07.413Z,20.47
2019-01-25T11:59:34.281Z,20.93
2019-01-25T12:02:01.142Z,21.07
2019-01-25T12:04:28.062Z,19.50
2019-01-25T12:06:54.941Z,19.70
2019-01-25T12:09:21.853Z,19.30
2019-01-25T12:11:48.671Z,18.30
2019-01-25T12:14:15.583Z,18.93
2019-01-25T12:16:42.419Z,20.13
2019-01-25T12:19:09.204Z,19.63
2019-01-25T12:21:36.198Z,19.77
2019-01-25T12:24:03.304Z,19.67
2019-01-25T12:26:30.152Z,20.60
2019-01-25T12:28:57.132Z,21.40
2019-01-25T12:31:23.951Z,19.97
2019-01-25T12:33:50.842Z,21.13
2019-01-25T12:36:17.740Z,21.93
2019-01-25T12:38:44.628Z,22.47
2019-01-25T12:41:11.481Z,21.20
2019-01-25T12:43:38.841Z,23.07
2019-01-25T12:46:05.733Z,23.03
2019-01-25T12:48:32.693Z,22.07
2019-01-25T12:51:19.321Z,21.13
2019-01-25T12:53:46.270Z,22.50
2019-01-25T12:56:13.258Z,22.90
2019-01-25T12:58:40.207Z,21.90
2019-01-25T13:01:09.190Z,21.50
2019-01-25T13:03:36.201Z,22.10
2019-01-25T13:06:03.700Z,23.67
2019-01-25T13:08:30.667Z,22.97
2019-01-25T13:10:57.585Z,21.70
2019-01-25T13:13:31.363Z,24.43
2019-01-25T13:15:53.523Z,22.73
2019-01-25T13:18:20.469Z,22.23
2019-01-25T13:20:47.347Z,23.13
2019-01-25T13:23:14.230Z,24.67
2019-01-25T13:25:41.232Z,23.50
2019-01-25T13:28:08.544Z,23.17
2019-01-25T13:30:35.478Z,23.47
2019-01-25T13:33:02.866Z,23.63
2019-01-25T13:35:30.140Z,24.77
2019-01-25T13:37:57.202Z,23.13
2019-01-25T13:40:24.141Z,23.83
2019-01-25T13:42:51.438Z,22.60
2019-01-25T13:45:18.489Z,25.60
2019-01-25T13:47:45.505Z,23.30
2019-01-25T13:50:13.867Z,22.00
2019-01-25T13:52:40.851Z,22.30
2019-01-25T13:55:08.656Z,24.63
2019-01-25T13:57:35.528Z,24.03
2019-01-25T14:00:04.951Z,24.50
2019-01-25T14:02:32.137Z,24.53
2019-01-25T14:04:59.840Z,23.63
2019-01-25T14:07:26.859Z,23.60
2019-01-25T14:09:53.823Z,24.83
2019-01-25T14:12:20.672Z,24.50
2019-01-25T14:14:48.993Z,27.27
2019-01-25T14:17:17.495Z,26.23
2019-01-25T14:19:44.474Z,27.03
2019-01-25T14:22:12.875Z,23.77
2019-01-25T14:24:40.052Z,25.17
2019-01-25T14:27:06.952Z,25.23
2019-01-25T14:29:33.893Z,24.63
2019-01-25T14:32:01.496Z,24.67
2019-01-25T14:34:28.623Z,25.73
2019-01-25T14:36:55.556Z,26.50
2019-01-25T14:39:22.497Z,23.03
2019-01-25T14:41:49.247Z,24.40
2019-01-25T14:44:16.003Z,26.17
2019-01-25T14:46:42.691Z,23.47
2019-01-25T14:49:09.442Z,24.30
2019-01-25T14:51:36.036Z,25.57
2019-01-25T14:54:03.001Z,25.10
2019-01-25T14:56:29.623Z,20.80
2019-01-25T14:58:56.448Z,21.30
2019-01-25T15:01:23.525Z,22.53
2019-01-25T15:03:50.250Z,25.00
2019-01-25T15:06:16.953Z,25.10
2019-01-25T15:08:43.591Z,22.87
2019-01-25T15:11:10.701Z,25.20
2019-01-25T15:13:37.433Z,25.73
2019-01-25T15:16:04.258Z,23.93
2019-01-25T15:18:31.004Z,24.10
2019-01-25T15:20:57.693Z,24.60
2019-01-25T15:23:24.516Z,26.37
2019-01-25T15:25:51.202Z,25.03
2019-01-25T15:28:18.064Z,27.33
2019-01-25T15:30:45.107Z,21.80
2019-01-25T15:33:12.647Z,22.83
2019-01-25T15:35:39.275Z,25.27
2019-01-25T15:38:06.036Z,25.93
2019-01-25T15:40:32.834Z,24.63
2019-01-25T15:42:59.513Z,24.87
2019-01-25T15:45:26.319Z,26.23
2019-01-25T15:47:53.109Z,25.50
2019-01-25T15:50:22.202Z,25.87
2019-01-25T15:52:49.323Z,27.17
2019-01-25T15:55:17.008Z,23.87
2019-01-25T15:57:44.071Z,27.33
2019-01-25T16:00:13.772Z,26.27
2019-01-25T16:02:41.318Z,25.23
2019-01-25T16:05:10.087Z,27.17
2019-01-25T16:07:36.877Z,25.40
2019-01-25T16:10:05.414Z,25.53
2019-01-25T16:12:32.880Z,26.83
2019-01-25T16:14:59.717Z,23.07
2019-01-25T16:17:26.582Z,25.80
2019-01-25T16:19:54.158Z,26.17
2019-01-25T16:22:20.970Z,26.33
2019-01-25T16:24:48.321Z,24.90
2019-01-25T16:27:15.346Z,26.43
2019-01-25T16:29:42.548Z,25.10
2019-01-25T16:32:10.443Z,24.03
2019-01-25T16:34:37.737Z,26.73
2019-01-25T16:37:05.583Z,26.40
2019-01-25T16:39:32.681Z,27.30
2019-01-25T16:41:59.681Z,27.83
2019-01-25T16:44:26.521Z,26.53
2019-01-25T16:46:53.399Z,28.30
2019-01-25T16:49:20.175Z,27.97
2019-01-25T16:51:46.981Z,27.67
2019-01-25T16:54:14.243Z,28.00
2019-01-25T16:56:41.014Z,26.90
2019-01-25T16:59:07.893Z,28.70
2019-01-25T17:01:38.038Z,28.10
2019-01-25T17:04:04.901Z,26.90
2019-01-25T17:06:31.627Z,29.30
2019-01-25T17:08:58.376Z,29.70
2019-01-25T17:11:25.133Z,29.13
2019-01-25T17:13:51.867Z,27.90
2019-01-25T17:16:18.832Z,29.27
2019-01-25T17:18:45.669Z,29.13
2019-01-25T17:21:12.924Z,30.03
2019-01-25T17:23:39.706Z,26.70
2019-01-25T17:26:07.009Z,29.03
2019-01-25T17:28:34.009Z,27.63
2019-01-25T17:31:01.236Z,27.77
2019-01-25T17:33:28.376Z,28.10
2019-01-25T17:35:54.973Z,24.40
2019-01-25T17:38:25.492Z,26.83
2019-01-25T17:40:52.241Z,28.40
2019-01-25T17:43:19.182Z,26.33
2019-01-25T17:45:45.874Z,30.90
2019-01-25T17:48:12.949Z,30.20
2019-01-25T17:50:39.566Z,28.33
2019-01-25T17:53:06.187Z,29.40
2019-01-25T17:55:32.930Z,27.70
2019-01-25T17:57:59.697Z,29.33
2019-01-25T18:00:30.115Z,29.03
2019-01-25T18:02:57.105Z,30.07
2019-01-25T18:05:23.760Z,29.90
2019-01-25T18:07:50.913Z,29.60
2019-01-25T18:10:17.884Z,28.80
2019-01-25T18:12:44.583Z,28.50
2019-01-25T18:15:12.236Z,27.87
2019-01-25T18:17:38.980Z,29.77
2019-01-25T18:20:07.587Z,30.90
2019-01-25T18:22:34.601Z,27.27
2019-01-25T18:25:01.556Z,25.30
2019-01-25T18:27:28.224Z,28.57
2019-01-25T18:29:57.336Z,30.30
2019-01-25T18:32:26.463Z,29.70
2019-01-25T18:34:53.081Z,29.67
2019-01-25T18:37:20.177Z,30.40
2019-01-25T18:39:46.845Z,27.80
2019-01-25T18:42:13.597Z,30.97
2019-01-25T18:44:40.306Z,27.00
2019-01-25T18:47:06.916Z,30.70
2019-01-25T18:49:33.591Z,28.03
2019-01-25T18:52:03.532Z,30.93
2019-01-25T18:54:32.565Z,29.73
2019-01-25T18:57:02.503Z,28.87
2019-01-25T18:59:30.119Z,27.73
2019-01-25T19:01:56.886Z,29.30
2019-01-25T19:04:23.541Z,31.03
2019-01-25T19:06:51.066Z,28.77
2019-01-25T19:09:17.797Z,29.93
2019-01-25T19:11:44.508Z,29.60
2019-01-25T19:14:11.375Z,29.17
2019-01-25T19:16:38.293Z,29.87
2019-01-25T19:19:05.078Z,28.50
2019-01-25T19:21:31.995Z,30.37
2019-01-25T19:23:59.149Z,30.00
2019-01-25T19:26:26.592Z,27.70
2019-01-25T19:28:53.704Z,29.90
2019-01-25T19:31:21.053Z,33.80
2019-01-25T19:33:48.271Z,29.70
2019-01-25T19:36:15.105Z,28.23
2019-01-25T19:38:41.840Z,31.50
2019-01-25T19:41:11.591Z,27.17
2019-01-25T19:43:39.213Z,30.30
2019-01-25T19:46:06.337Z,29.17
2019-01-25T19:48:33.240Z,25.50
2019-01-25T19:51:00.927Z,28.80
2019-01-25T19:53:27.574Z,24.60
2019-01-25T19:55:54.689Z,22.10
2019-01-25T19:58:21.906Z,22.23
2019-01-25T20:00:50.033Z,25.37
2019-01-25T20:03:16.802Z,21.30
2019-01-25T20:05:43.804Z,23.43
2019-01-25T20:08:11.123Z,16.73
2019-01-25T20:10:37.912Z,35.00
2019-01-25T20:13:05.448Z,20.47
2019-01-25T20:15:32.200Z,18.50
2019-01-25T20:17:59.165Z,18.80
2019-01-25T20:20:28.140Z,17.13
2019-01-25T20:22:55.033Z,17.70
2019-01-25T20:25:22.067Z,20.80
2019-01-25T20:27:48.958Z,19.67
2019-01-25T20:30:18.392Z,18.73
2019-01-25T20:32:45.248Z,14.40
2019-01-25T20:35:14.457Z,19.07
2019-01-25T20:37:43.934Z,20.67
2019-01-25T20:40:12.627Z,20.00
2019-01-25T20:42:39.682Z,18.97
2019-01-25T20:45:12.408Z,19.13
2019-01-25T20:47:39.336Z,18.17
2019-01-25T20:50:10.040Z,17.47
2019-01-25T20:52:37.088Z,19.03
2019-01-25T20:55:04.808Z,19.00
2019-01-25T20:57:31.858Z,18.10
2019-01-25T20:59:58.464Z,17.70
2019-01-25T21:02:25.096Z,16.87
2019-01-25T21:04:51.788Z,17.20
2019-01-25T21:07:18.630Z,18.37
2019-01-25T21:09:45.305Z,17.90
2019-01-25T21:12:11.951Z,18.50
2019-01-25T21:14:38.547Z,19.23
2019-01-25T21:17:05.181Z,19.50
2019-01-25T21:19:31.786Z,17.40
2019-01-25T21:21:58.372Z,18.03
2019-01-25T21:24:25.217Z,16.27
2019-01-25T21:26:51.995Z,18.60
2019-01-25T21:29:18.597Z,17.07
2019-01-25T21:31:45.274Z,17.50
2019-01-25T21:34:11.996Z,18.40
2019-01-25T21:36:40.193Z,17.03
2019-01-25T21:39:08.045Z,15.43
2019-01-25T21:41:34.731Z,17.40
2019-01-25T21:44:01.352Z,15.80
2019-01-25T21:46:30.429Z,16.50
2019-01-25T21:48:57.085Z,17.87
2019-01-25T21:51:23.952Z,17.73
2019-01-25T21:53:50.648Z,17.33
2019-01-25T21:56:18.472Z,16.70
2019-01-25T21:58:45.085Z,16.40
2019-01-25T22:01:13.781Z,19.33
2019-01-25T22:03:40.952Z,17.40
2019-01-25T22:06:07.986Z,17.83
2019-01-25T22:08:34.932Z,16.37
2019-01-25T22:11:04.624Z,18.77
2019-01-25T22:13:31.411Z,17.53
2019-01-25T22:15:58.153Z,18.43
2019-01-25T22:18:24.895Z,18.63
2019-01-25T22:20:51.559Z,17.37
2019-01-25T22:23:18.267Z,15.90
2019-01-25T22:25:45.205Z,16.67
2019-01-25T22:28:11.854Z,18.23
2019-01-25T22:30:38.521Z,17.57
2019-01-25T22:33:05.120Z,17.70
2019-01-25T22:35:31.755Z,17.63
2019-01-25T22:37:58.396Z,17.60
2019-01-25T22:40:30.143Z,18.93
2019-01-25T22:42:57.140Z,16.70
2019-01-25T22:45:25.727Z,19.00
2019-01-25T22:47:52.365Z,19.27
2019-01-25T22:50:21.112Z,18.20
2019-01-25T22:52:48.103Z,19.87
2019-01-25T22:55:15.405Z,18.20
2019-01-25T22:57:42.487Z,19.00
2019-01-25T23:00:47.633Z,18.60
2019-01-25T23:03:15.513Z,19.10
2019-01-25T23:06:09.275Z,19.27
2019-01-25T23:08:35.900Z,20.57
2019-01-25T23:11:02.859Z,21.53
2019-01-25T23:13:35.556Z,20.33
2019-01-25T23:16:06.433Z,20.23
2019-01-25T23:18:31.203Z,19.40
2019-01-25T23:20:57.928Z,22.00
2019-01-25T23:23:24.731Z,21.50
2019-01-25T23:25:51.459Z,23.23
2019-01-25T23:28:18.061Z,20.93
2019-01-25T23:30:44.736Z,19.90
2019-01-25T23:33:11.362Z,22.83
2019-01-25T23:35:38.588Z,21.73
2019-01-25T23:38:05.370Z,20.93
2019-01-25T23:40:31.971Z,22.90
2019-01-25T23:42:58.605Z,19.87
2019-01-25T23:45:25.332Z,22.10
2019-01-25T23:47:51.952Z,23.67
2019-01-25T23:50:18.752Z,21.60
2019-01-25T23:52:45.393Z,24.50
2019-01-25T23:55:12.099Z,19.93
2019-01-25T23:57:38.881Z,20.87
